Time;durP1;ratioP1;P1;durP2;ratioP2;P2;SDS_P1;SDS_P2;PMS_P1;PMS_P2;Temp;Humidity;BMP_temperature;BMP_pressure;BME280_temperature;BME280_humidity;BME280_pressure;Samples;Min_cycle;Max_cycle;Signal;HPM_P1;HPM_P2
2021/10/25 00:00:35;;;;;;;;;;;5.70;99.90;;;;;;4976901;28;19913;-69
2021/10/25 00:03:01;;;;;;;;;;;5.60;99.90;;;;;;4975236;28;19910;-68
2021/10/25 00:05:27;;;;;;;;;;;5.60;99.90;;;;;;4975069;28;19910;-68
2021/10/25 00:07:54;;;;;;;;;;;5.60;99.90;;;;;;4975696;28;19961;-67
2021/10/25 00:10:19;;;;;;;;;;;5.60;99.90;;;;;;4976418;28;19913;-68
2021/10/25 00:12:45;;;;;;;;;;;5.60;99.90;;;;;;4975153;28;19906;-69
2021/10/25 00:15:13;;;;;;;;;;;5.50;99.90;;;;;;4976330;28;19906;-71
2021/10/25 00:17:39;;;;;;;;;;;5.40;99.90;;;;;;4974515;28;19929;-68
2021/10/25 00:20:06;;;;;;;;;;;5.30;99.90;;;;;;4976259;28;20482;-68
2021/10/25 00:22:32;;;;;;;;;;;5.20;99.90;;;;;;4976161;28;19910;-67
2021/10/25 00:24:58;;;;;;;;;;;5.10;99.90;;;;;;4976196;28;20001;-69
2021/10/25 00:27:23;;;;;;;;;;;5.00;99.90;;;;;;4974819;28;20426;-69
2021/10/25 00:29:49;;;;;;;;;;;5.10;99.90;;;;;;4976357;28;20256;-69
2021/10/25 00:32:15;;;;;;;;;;;5.00;99.90;;;;;;4976012;28;19910;-69
2021/10/25 00:34:41;;;;;;;;;;;5.00;99.90;;;;;;4975693;28;20355;-70
2021/10/25 00:37:07;;;;;;;;;;;5.00;99.90;;;;;;4976196;28;19906;-67
2021/10/25 00:39:33;;;;;;;;;;;5.00;99.90;;;;;;4975842;28;19913;-70
2021/10/25 00:41:59;;;;;;;;;;;5.00;99.90;;;;;;4975731;28;19921;-70
2021/10/25 00:44:26;;;;;;;;;;;5.00;99.90;;;;;;4975744;28;19932;-70
2021/10/25 00:46:51;;;;;;;;;;;5.00;99.90;;;;;;4975721;28;19968;-68
2021/10/25 00:49:17;;;;;;;;;;;4.90;99.90;;;;;;4975984;28;19941;-70
2021/10/25 00:51:44;;;;;;;;;;;4.80;99.90;;;;;;4974362;28;19913;-67
2021/10/25 00:54:10;;;;;;;;;;;4.80;99.90;;;;;;4975599;28;19906;-70
2021/10/25 00:56:37;;;;;;;;;;;4.80;99.90;;;;;;4975617;28;20366;-70
2021/10/25 00:59:03;;;;;;;;;;;4.80;99.90;;;;;;4974492;28;19913;-69
2021/10/25 01:01:29;;;;;;;;;;;4.70;99.90;;;;;;4975601;28;19910;-69
2021/10/25 01:03:54;;;;;;;;;;;4.70;99.90;;;;;;4975436;28;19954;-70
2021/10/25 01:06:20;;;;;;;;;;;4.70;99.90;;;;;;4975728;28;19906;-69
2021/10/25 01:08:47;;;;;;;;;;;4.70;99.90;;;;;;4973761;28;20072;-68
2021/10/25 01:11:13;;;;;;;;;;;4.60;99.90;;;;;;4975332;28;20410;-69
2021/10/25 01:13:40;;;;;;;;;;;4.60;99.90;;;;;;4974920;28;19914;-68
2021/10/25 01:16:06;;;;;;;;;;;4.60;99.90;;;;;;4973666;28;19918;-69
2021/10/25 01:18:32;;;;;;;;;;;4.70;99.90;;;;;;4974902;28;19997;-70
2021/10/25 01:20:57;;;;;;;;;;;4.70;99.90;;;;;;4973823;28;20000;-65
2021/10/25 01:23:23;;;;;;;;;;;4.70;99.90;;;;;;4975156;28;19913;-67
2021/10/25 01:25:50;;;;;;;;;;;4.70;99.90;;;;;;4973866;28;19921;-68
2021/10/25 01:28:15;;;;;;;;;;;4.70;99.90;;;;;;4975115;28;19906;-67
2021/10/25 01:30:41;;;;;;;;;;;4.50;99.90;;;;;;4975042;28;19985;-67
2021/10/25 01:33:14;;;;;;;;;;;4.40;99.90;;;;;;4974997;28;19906;-66
2021/10/25 01:35:41;;;;;;;;;;;4.40;99.90;;;;;;4975019;28;20266;-67
2021/10/25 01:38:09;;;;;;;;;;;4.40;99.90;;;;;;4973654;28;19906;-67
2021/10/25 01:40:34;;;;;;;;;;;4.40;99.90;;;;;;4975249;28;20001;-65
2021/10/25 01:43:00;;;;;;;;;;;4.40;99.90;;;;;;4974831;28;20332;-68
2021/10/25 01:45:26;;;;;;;;;;;4.40;99.90;;;;;;4974600;28;20274;-68
2021/10/25 01:47:53;;;;;;;;;;;4.50;99.90;;;;;;4973509;28;19907;-68
2021/10/25 01:50:18;;;;;;;;;;;4.50;99.90;;;;;;4973496;28;20330;-68
2021/10/25 01:52:44;;;;;;;;;;;4.60;99.90;;;;;;4973495;28;19928;-68
2021/10/25 01:55:10;;;;;;;;;;;4.60;99.90;;;;;;4974756;28;19953;-70
2021/10/25 01:57:36;;;;;;;;;;;4.70;99.90;;;;;;4975008;28;19910;-70
2021/10/25 02:00:01;;;;;;;;;;;4.80;99.90;;;;;;4974360;28;19906;-69
2021/10/25 02:02:27;;;;;;;;;;;4.80;99.90;;;;;;4974333;28;19914;-68
2021/10/25 02:04:53;;;;;;;;;;;4.80;99.90;;;;;;4974626;28;19910;-68
2021/10/25 02:07:19;;;;;;;;;;;4.70;99.90;;;;;;4974939;28;20362;-68
2021/10/25 02:09:45;;;;;;;;;;;4.60;99.90;;;;;;4974588;28;19906;-69
2021/10/25 02:12:11;;;;;;;;;;;4.60;99.90;;;;;;4974303;28;20248;-68
2021/10/25 02:14:36;;;;;;;;;;;4.60;99.90;;;;;;4974560;28;19977;-69
2021/10/25 02:17:02;;;;;;;;;;;4.60;99.90;;;;;;4974347;28;19929;-68
2021/10/25 02:19:28;;;;;;;;;;;4.60;99.90;;;;;;4974495;28;20347;-70
2021/10/25 02:21:54;;;;;;;;;;;4.60;99.90;;;;;;4974418;28;19956;-68
2021/10/25 02:24:19;;;;;;;;;;;4.60;99.90;;;;;;4974159;28;19910;-69
2021/10/25 02:26:45;;;;;;;;;;;4.70;99.90;;;;;;4973199;28;20267;-68
2021/10/25 02:29:11;;;;;;;;;;;4.70;99.90;;;;;;4973219;28;19909;-68
2021/10/25 02:31:37;;;;;;;;;;;4.70;99.90;;;;;;4978275;28;19906;-68
2021/10/25 02:34:03;;;;;;;;;;;4.70;99.90;;;;;;4978417;28;19906;-67
2021/10/25 02:36:29;;;;;;;;;;;4.70;99.90;;;;;;4978206;28;19914;-67
2021/10/25 02:38:54;;;;;;;;;;;4.70;99.90;;;;;;4978116;28;19906;-67
2021/10/25 02:41:20;;;;;;;;;;;4.80;99.90;;;;;;4978228;28;20251;-68
2021/10/25 02:43:47;;;;;;;;;;;4.70;99.90;;;;;;4978306;28;19917;-68
2021/10/25 02:46:13;;;;;;;;;;;4.70;99.90;;;;;;4976701;28;20347;-67
2021/10/25 02:48:39;;;;;;;;;;;4.60;99.90;;;;;;4977906;28;20001;-66
2021/10/25 02:51:05;;;;;;;;;;;4.60;99.90;;;;;;4977866;28;19910;-68
2021/10/25 02:53:31;;;;;;;;;;;4.60;99.90;;;;;;4976535;28;19913;-67
2021/10/25 02:55:57;;;;;;;;;;;4.60;99.90;;;;;;4976306;28;19960;-67
2021/10/25 02:58:23;;;;;;;;;;;4.50;99.90;;;;;;4977794;28;19910;-66
2021/10/25 03:00:49;;;;;;;;;;;4.50;99.90;;;;;;4977657;28;20453;-66
2021/10/25 03:03:15;;;;;;;;;;;4.40;99.90;;;;;;4976279;28;19993;-66
2021/10/25 03:05:41;;;;;;;;;;;4.40;99.90;;;;;;4976276;28;19910;-65
2021/10/25 03:08:07;;;;;;;;;;;4.50;99.90;;;;;;4977593;28;19917;-65
2021/10/25 03:10:32;;;;;;;;;;;4.50;99.90;;;;;;4976223;28;19906;-65
2021/10/25 03:12:58;;;;;;;;;;;4.50;99.90;;;;;;4977493;28;20278;-65
2021/10/25 03:15:24;;;;;;;;;;;4.50;99.90;;;;;;4977134;28;19930;-66
2021/10/25 03:17:50;;;;;;;;;;;4.30;99.90;;;;;;4977093;28;19925;-67
2021/10/25 03:20:16;;;;;;;;;;;4.30;99.90;;;;;;4977363;28;20331;-65
2021/10/25 03:22:42;;;;;;;;;;;4.30;99.90;;;;;;4977305;28;20004;-65
2021/10/25 03:25:09;;;;;;;;;;;4.30;99.90;;;;;;4977238;28;19997;-65
2021/10/25 03:27:35;;;;;;;;;;;4.30;99.90;;;;;;4977062;28;20056;-65
2021/10/25 03:30:00;;;;;;;;;;;4.40;99.90;;;;;;4975869;28;19906;-64
2021/10/25 03:32:27;;;;;;;;;;;4.40;99.90;;;;;;4975895;28;19913;-64
2021/10/25 03:34:53;;;;;;;;;;;4.30;99.90;;;;;;4975771;28;20462;-65
2021/10/25 03:37:19;;;;;;;;;;;4.30;99.90;;;;;;4977092;28;19950;-65
2021/10/25 03:39:47;;;;;;;;;;;4.40;99.90;;;;;;4977016;28;20363;-65
2021/10/25 03:42:25;;;;;;;;;;;4.40;99.90;;;;;;4976782;28;19914;-65
2021/10/25 03:45:00;;;;;;;;;;;4.40;99.90;;;;;;4975746;28;20413;-66
2021/10/25 03:47:31;;;;;;;;;;;4.50;99.90;;;;;;4976936;28;19906;-64
2021/10/25 03:50:20;;;;;;;;;;;4.50;99.90;;;;;;4976913;28;19913;-65
2021/10/25 03:52:58;;;;;;;;;;;4.50;99.90;;;;;;4976106;28;19929;-65
2021/10/25 03:58:42;;;;;;;;;;;4.50;99.90;;;;;;4976387;28;20008;-65
2021/10/25 04:30:30;;;;;;;;;;;4.20;99.90;;;;;;4976034;28;20379;-66
2021/10/25 04:32:56;;;;;;;;;;;4.20;99.90;;;;;;4975901;28;19929;-68
2021/10/25 04:35:21;;;;;;;;;;;4.20;99.90;;;;;;4976255;28;19910;-67
2021/10/25 04:37:49;;;;;;;;;;;4.20;99.90;;;;;;4975732;28;19910;-67
2021/10/25 04:40:15;;;;;;;;;;;4.10;99.90;;;;;;4975840;28;19906;-67
2021/10/25 04:42:41;;;;;;;;;;;4.10;99.90;;;;;;4974448;28;19917;-68
2021/10/25 04:45:07;;;;;;;;;;;4.00;99.90;;;;;;4975785;28;20000;-69
2021/10/25 04:47:33;;;;;;;;;;;4.00;99.90;;;;;;4975756;28;19933;-66
2021/10/25 04:49:58;;;;;;;;;;;4.00;99.90;;;;;;4975734;28;19993;-68
2021/10/25 04:52:24;;;;;;;;;;;4.00;99.90;;;;;;4973830;28;19907;-68
2021/10/25 04:54:50;;;;;;;;;;;3.90;99.90;;;;;;4975608;28;19906;-67
2021/10/25 04:57:16;;;;;;;;;;;3.90;99.90;;;;;;4975586;28;20248;-67
2021/10/25 04:59:42;;;;;;;;;;;3.90;99.90;;;;;;4974156;28;19906;-66
2021/10/25 05:02:08;;;;;;;;;;;3.90;99.90;;;;;;4975416;28;19914;-69
2021/10/25 05:04:33;;;;;;;;;;;3.90;99.90;;;;;;4975432;28;19910;-68
2021/10/25 05:06:59;;;;;;;;;;;3.90;99.90;;;;;;4975477;28;20251;-67
2021/10/25 05:09:25;;;;;;;;;;;3.80;99.90;;;;;;4975305;28;19910;-67
2021/10/25 05:11:51;;;;;;;;;;;3.80;99.90;;;;;;4975560;28;19950;-68
2021/10/25 05:14:16;;;;;;;;;;;3.80;99.90;;;;;;4975289;28;19906;-66
2021/10/25 05:16:43;;;;;;;;;;;3.80;99.90;;;;;;4975070;28;19925;-66
2021/10/25 05:19:09;;;;;;;;;;;3.80;99.90;;;;;;4975115;28;19953;-69
2021/10/25 05:21:36;;;;;;;;;;;3.80;99.90;;;;;;4975100;28;19914;-66
2021/10/25 05:24:03;;;;;;;;;;;3.80;99.90;;;;;;4975105;28;20270;-67
2021/10/25 05:26:29;;;;;;;;;;;3.80;99.90;;;;;;4973693;28;19917;-66
2021/10/25 05:28:55;;;;;;;;;;;3.80;99.90;;;;;;4973834;28;19912;-69
2021/10/25 05:31:21;;;;;;;;;;;3.70;99.90;;;;;;4973724;28;19910;-66
2021/10/25 05:33:47;;;;;;;;;;;3.60;99.90;;;;;;4974891;28;20266;-67
2021/10/25 05:36:12;;;;;;;;;;;3.60;99.90;;;;;;4973658;28;19913;-67
2021/10/25 05:38:39;;;;;;;;;;;3.60;99.90;;;;;;4975151;28;19906;-69
2021/10/25 05:41:04;;;;;;;;;;;3.70;99.90;;;;;;4974670;28;19906;-71
2021/10/25 05:43:31;;;;;;;;;;;3.90;99.90;;;;;;4974794;28;19980;-70
2021/10/25 05:45:56;;;;;;;;;;;4.00;99.90;;;;;;4973492;28;19907;-69
2021/10/25 05:48:23;;;;;;;;;;;4.00;99.90;;;;;;4975101;28;19913;-71
2021/10/25 05:50:49;;;;;;;;;;;4.00;99.90;;;;;;4974415;28;20290;-71
2021/10/25 05:53:15;;;;;;;;;;;4.10;99.90;;;;;;4974415;28;19913;-68
2021/10/25 05:55:42;;;;;;;;;;;4.20;99.90;;;;;;4986622;28;19913;-67
2021/10/25 05:58:23;;;;;;;;;;;4.20;99.90;;;;;;4992339;28;19909;-70
2021/10/25 06:00:55;;;;;;;;;;;4.20;99.90;;;;;;4994102;28;19920;-70
2021/10/25 06:03:24;;;;;;;;;;;4.20;99.90;;;;;;4992668;28;20314;-70
2021/10/25 06:05:50;;;;;;;;;;;4.30;99.90;;;;;;4996503;28;19918;-70
2021/10/25 06:08:16;;;;;;;;;;;4.30;99.90;;;;;;4998078;28;20394;-70
2021/10/25 06:10:42;;;;;;;;;;;4.40;99.90;;;;;;4997986;28;19989;-70
2021/10/25 06:13:10;;;;;;;;;;;4.40;99.90;;;;;;4996518;28;20354;-70
2021/10/25 06:15:41;;;;;;;;;;;4.50;99.90;;;;;;4995503;28;19945;-69
2021/10/25 06:18:10;;;;;;;;;;;4.50;99.90;;;;;;4996409;28;20278;-71
2021/10/25 06:20:39;;;;;;;;;;;4.60;99.90;;;;;;4997727;28;20000;-70
2021/10/25 06:23:11;;;;;;;;;;;4.60;99.90;;;;;;4997707;28;19910;-70
2021/10/25 06:25:38;;;;;;;;;;;4.70;99.90;;;;;;4996504;28;19910;-70
2021/10/25 06:28:04;;;;;;;;;;;4.60;99.90;;;;;;4997535;28;19952;-70
2021/10/25 06:30:30;;;;;;;;;;;4.60;99.90;;;;;;4997647;28;19905;-70
2021/10/25 06:32:56;;;;;;;;;;;4.70;99.90;;;;;;4996325;28;20001;-71
2021/10/25 06:35:25;;;;;;;;;;;4.80;99.90;;;;;;4996325;28;20319;-70
2021/10/25 06:40:23;;;;;;;;;;;5.00;99.90;;;;;;4997555;28;19917;-69
2021/10/25 06:42:50;;;;;;;;;;;5.10;99.90;;;;;;4993558;28;19917;-69
2021/10/25 06:45:19;;;;;;;;;;;5.20;99.90;;;;;;4994178;28;19910;-70
2021/10/25 06:47:45;;;;;;;;;;;5.30;99.90;;;;;;4976638;28;19906;-68
2021/10/25 06:50:11;;;;;;;;;;;5.30;99.90;;;;;;4977786;28;19906;-69
2021/10/25 06:52:37;;;;;;;;;;;5.40;99.90;;;;;;4977597;28;19906;-68
2021/10/25 06:55:03;;;;;;;;;;;5.50;99.90;;;;;;4977125;28;19913;-67
2021/10/25 06:57:29;;;;;;;;;;;5.60;99.90;;;;;;4977270;28;19917;-69
2021/10/25 06:59:55;;;;;;;;;;;5.70;99.90;;;;;;4977632;28;19906;-69
2021/10/25 07:02:20;;;;;;;;;;;5.80;99.90;;;;;;4976237;28;20000;-68
2021/10/25 07:04:48;;;;;;;;;;;5.90;99.90;;;;;;4977457;28;19918;-66
2021/10/25 07:07:13;;;;;;;;;;;6.00;99.90;;;;;;4976101;28;19906;-67
2021/10/25 07:09:39;;;;;;;;;;;6.10;99.90;;;;;;4977261;28;19921;-66
2021/10/25 07:12:06;;;;;;;;;;;6.20;99.90;;;;;;4977448;28;19906;-64
2021/10/25 07:14:36;;;;;;;;;;;6.30;99.90;;;;;;4977360;28;19913;-68
2021/10/25 08:06:15;;;;;;;;;;;;;;;;;;4976427;28;19960;-66
2021/10/25 08:11:09;;;;;;;;;;;;;;;;;;4976195;28;19929;-67
2021/10/25 08:13:39;;;;;;;;;;;;;;;;;;4976276;28;19905;-66
2021/10/25 08:16:11;;;;;;;;;;;;;;;;;;4976246;28;19960;-66
2021/10/25 08:21:04;;;;;;;;;;;;;;;;;;4976221;28;20004;-66
2021/10/25 08:23:30;;;;;;;;;;;;;;;;;;4976011;28;19922;-68
2021/10/25 08:25:56;;;;;;;;;;;;;;;;;;4976070;28;19906;-66
2021/10/25 08:28:22;;;;;;;;;;;;;;;;;;4974977;28;20363;-66
2021/10/25 08:30:51;;;;;;;;;;;;;;;;;;4975993;28;19913;-69
2021/10/25 08:41:15;;;;;;;;;;;;;;;;;;4956270;29;20274;-68
2021/10/25 08:43:42;;;;;;;;;;;;;;;;;;4956543;29;20360;-67
2021/10/25 08:46:09;;;;;;;;;;;;;;;;;;4955178;29;19913;-66
2021/10/25 08:48:35;;;;;;;;;;;;;;;;;;4956549;28;19907;-68
2021/10/25 08:51:02;;;;;;;;;;;;;;;;;;4956430;29;20713;-68
2021/10/25 08:53:28;;;;;;;;;;;;;;;;;;4956388;29;19949;-69
2021/10/25 08:55:54;;;;;;;;;;;;;;;;;;4956301;29;19993;-67
2021/10/25 08:58:22;;;;;;;;;;;;;;;;;;4956260;29;19917;-67
2021/10/25 09:00:50;;;;;;;;;;;;;;;;;;4956052;29;19932;-66
2021/10/25 09:03:16;;;;;;;;;;;;;;;;;;4954818;29;19940;-68
2021/10/25 09:05:42;;;;;;;;;;;;;;;;;;4965453;28;19920;-68
2021/10/25 09:08:10;;;;;;;;;;;;;;;;;;4984757;28;19954;-67
2021/10/25 09:10:36;;;;;;;;;;;;;;;;;;4984623;28;19960;-66
2021/10/25 09:13:02;;;;;;;;;;;;;;;;;;4979567;28;20621;-68
2021/10/25 09:15:28;;;;;;;;;;;;;;;;;;4991617;28;19968;-65
2021/10/25 09:17:55;;;;;;;;;;;;;;;;;;4993927;28;20370;-65
2021/10/25 09:20:22;;;;;;;;;;;;;;;;;;4994509;28;19990;-66
2021/10/25 09:22:48;;;;;;;;;;;;;;;;;;4983138;28;19917;-66
2021/10/25 09:25:14;;;;;;;;;;;;;;;;;;4975207;28;19968;-65
2021/10/25 09:27:42;;;;;;;;;;;;;;;;;;4973684;28;19917;-65
2021/10/25 09:30:09;;;;;;;;;;;13.00;99.70;;;;;;4974821;28;19910;-65
2021/10/25 09:32:35;;;;;;;;;;;13.00;97.40;;;;;;4973805;28;19913;-69
2021/10/25 09:35:04;;;;;;;;;;;13.20;95.30;;;;;;4988065;28;19905;-67
2021/10/25 09:37:37;;;;;;;;;;;13.30;97.10;;;;;;4993959;28;20000;-69
2021/10/25 09:40:13;;;;;;;;;;;13.40;96.90;;;;;;4993711;28;20321;-66
2021/10/25 09:42:55;;;;;;;;;;;13.60;98.80;;;;;;4993876;28;19909;-69
2021/10/25 09:50:58;;;;;;;;;;;14.20;95.20;;;;;;4993672;28;19948;-71
2021/10/25 09:53:30;;;;;;;;;;;14.30;93.90;;;;;;4993810;28;20380;-73
2021/10/25 09:55:57;;;;;;;;;;;14.50;91.80;;;;;;4993818;28;19905;-69
2021/10/25 09:58:26;;;;;;;;;;;14.70;90.90;;;;;;4992624;28;19906;-69
2021/10/25 10:00:53;;;;;;;;;;;14.90;88.90;;;;;;4994264;28;19953;-70
2021/10/25 10:03:19;;;;;;;;;;;15.30;90.10;;;;;;4992517;28;19910;-70
2021/10/25 10:05:44;;;;;;;;;;;15.60;89.20;;;;;;4993465;28;20397;-70
2021/10/25 10:08:11;;;;;;;;;;;16.10;91.40;;;;;;4993844;28;19910;-69
2021/10/25 10:10:38;;;;;;;;;;;16.70;90.10;;;;;;4993642;28;19906;-69
2021/10/25 10:13:04;;;;;;;;;;;17.20;83.00;;;;;;4993825;28;19906;-70
2021/10/25 10:15:31;;;;;;;;;;;17.50;79.60;;;;;;4994042;28;20235;-69
2021/10/25 10:18:01;;;;;;;;;;;17.50;88.20;;;;;;4993665;28;19976;-67
2021/10/25 10:20:28;;;;;;;;;;;18.30;82.50;;;;;;4992273;28;19929;-70
2021/10/25 10:22:56;;;;;;;;;;;19.40;78.10;;;;;;4975963;28;19917;-67
2021/10/25 10:25:33;;;;;;;;;;;20.20;71.40;;;;;;4973528;28;19910;-68
2021/10/25 10:28:09;;;;;;;;;;;20.80;70.70;;;;;;4972469;28;19913;-70
2021/10/25 10:31:10;;;;;;;;;;;21.40;67.90;;;;;;4974166;28;20040;-69
2021/10/25 10:33:46;;;;;;;;;;;22.30;66.40;;;;;;4952049;29;19913;-69
2021/10/25 10:36:14;;;;;;;;;;;22.80;64.40;;;;;;4970757;28;19949;-69
2021/10/25 10:39:04;;;;;;;;;;;23.60;61.60;;;;;;4972472;28;19910;-69
2021/10/25 10:41:37;;;;;;;;;;;24.10;60.00;;;;;;4972689;28;19910;-66
2021/10/25 10:44:05;;;;;;;;;;;24.70;58.70;;;;;;4973873;28;19914;-66
2021/10/25 10:46:40;;;;;;;;;;;25.00;55.00;;;;;;4974021;28;19906;-68
2021/10/25 10:49:17;;;;;;;;;;;25.00;54.20;;;;;;4974204;28;19993;-69
2021/10/25 10:51:42;;;;;;;;;;;24.70;55.20;;;;;;4976559;28;19906;-69
2021/10/25 10:54:12;;;;;;;;;;;24.30;55.40;;;;;;4977844;28;19906;-68
2021/10/25 10:56:53;;;;;;;;;;;24.90;57.00;;;;;;4966965;28;19906;-68
2021/10/25 10:59:35;;;;;;;;;;;25.50;54.30;;;;;;4977754;28;19988;-69
2021/10/25 11:02:00;;;;;;;;;;;25.90;52.90;;;;;;4977602;28;20343;-67
2021/10/25 11:04:31;;;;;;;;;;;26.90;51.60;;;;;;4977615;28;19918;-69
2021/10/25 11:07:03;;;;;;;;;;;27.40;51.60;;;;;;4977947;28;20052;-70
2021/10/25 11:09:30;;;;;;;;;;;27.40;49.60;;;;;;4976164;28;19913;-69
2021/10/25 11:12:00;;;;;;;;;;;28.00;48.20;;;;;;4976102;28;19913;-70
2021/10/25 11:14:29;;;;;;;;;;;28.20;47.80;;;;;;4977474;28;19906;-69
2021/10/25 11:17:15;;;;;;;;;;;28.30;47.70;;;;;;4976921;28;19918;-70
2021/10/25 11:19:48;;;;;;;;;;;26.40;48.70;;;;;;4977336;28;19910;-71
2021/10/25 11:22:23;;;;;;;;;;;23.50;53.50;;;;;;4977009;28;19910;-70
2021/10/25 11:24:55;;;;;;;;;;;22.10;57.00;;;;;;4977469;28;19921;-70
2021/10/25 11:27:23;;;;;;;;;;;20.80;57.80;;;;;;4975834;28;19910;-68
2021/10/25 11:29:49;;;;;;;;;;;20.40;60.60;;;;;;4976565;28;19913;-68
2021/10/25 11:32:15;;;;;;;;;;;21.20;60.30;;;;;;4977328;28;19910;-70
2021/10/25 11:34:45;;;;;;;;;;;20.60;60.50;;;;;;4976994;28;19913;-70
2021/10/25 11:37:16;;;;;;;;;;;21.10;61.20;;;;;;4976942;28;19906;-69
2021/10/25 11:39:46;;;;;;;;;;;24.00;56.30;;;;;;4975607;28;19958;-70
2021/10/25 11:42:16;;;;;;;;;;;24.90;54.30;;;;;;4977020;28;20350;-68
2021/10/25 11:44:46;;;;;;;;;;;24.20;53.00;;;;;;4975483;28;20417;-69
2021/10/25 11:47:19;;;;;;;;;;;24.20;52.50;;;;;;4976798;28;19938;-71
2021/10/25 11:49:45;;;;;;;;;;;22.80;55.00;;;;;;4976710;28;19906;-71
2021/10/25 11:52:10;;;;;;;;;;;21.40;57.40;;;;;;4976636;28;20008;-68
2021/10/25 11:54:56;;;;;;;;;;;20.00;60.70;;;;;;4976632;28;19992;-69
2021/10/25 11:57:22;;;;;;;;;;;19.10;61.90;;;;;;4975961;28;19906;-69
2021/10/25 11:59:56;;;;;;;;;;;18.20;64.40;;;;;;4975073;28;19913;-68
2021/10/25 12:02:22;;;;;;;;;;;17.80;66.70;;;;;;4975155;28;19910;-69
2021/10/25 12:04:48;;;;;;;;;;;17.30;67.90;;;;;;4977265;28;19909;-69
2021/10/25 12:07:14;;;;;;;;;;;17.40;68.90;;;;;;4992250;28;20275;-70
2021/10/25 12:09:40;;;;;;;;;;;17.50;67.60;;;;;;4995551;28;19913;-69
2021/10/25 12:12:09;;;;;;;;;;;17.80;68.10;;;;;;4994489;28;20313;-68
2021/10/25 12:14:38;;;;;;;;;;;17.60;68.20;;;;;;4995583;28;20000;-68
2021/10/25 12:17:05;;;;;;;;;;;17.30;69.10;;;;;;4995397;28;19918;-70
2021/10/25 12:19:30;;;;;;;;;;;17.60;68.50;;;;;;4995548;28;19913;-70
2021/10/25 12:22:06;;;;;;;;;;;18.60;65.60;;;;;;4994175;28;20004;-70
2021/10/25 12:24:40;;;;;;;;;;;18.40;65.90;;;;;;4994050;28;19910;-68
2021/10/25 12:27:08;;;;;;;;;;;18.40;67.00;;;;;;4995530;28;19917;-70
2021/10/25 12:29:34;;;;;;;;;;;17.70;68.20;;;;;;4995042;28;20274;-70
2021/10/25 12:32:11;;;;;;;;;;;17.40;69.30;;;;;;4994204;28;19910;-70
2021/10/25 12:34:54;;;;;;;;;;;17.50;69.70;;;;;;4994016;28;19910;-68
2021/10/25 12:37:30;;;;;;;;;;;17.50;66.70;;;;;;4995256;28;19916;-68
2021/10/25 12:39:57;;;;;;;;;;;17.10;71.10;;;;;;4995286;28;19912;-69
2021/10/25 12:42:27;;;;;;;;;;;16.80;69.60;;;;;;4995094;28;19983;-69
2021/10/25 12:44:54;;;;;;;;;;;16.60;69.70;;;;;;4993828;28;19917;-69
2021/10/25 12:47:25;;;;;;;;;;;16.50;71.30;;;;;;4993786;28;20270;-69
2021/10/25 12:49:52;;;;;;;;;;;16.50;72.10;;;;;;4995064;28;20004;-70
2021/10/25 12:52:18;;;;;;;;;;;16.40;72.40;;;;;;4995081;28;19909;-71
2021/10/25 12:54:45;;;;;;;;;;;16.30;71.40;;;;;;4993500;28;20274;-68
2021/10/25 12:57:18;;;;;;;;;;;16.40;73.00;;;;;;4993678;28;20326;-70
2021/10/25 12:59:44;;;;;;;;;;;16.30;72.20;;;;;;4994873;28;20064;-68
2021/10/25 13:02:09;;;;;;;;;;;16.30;72.30;;;;;;4994794;28;19914;-68
2021/10/25 13:04:36;;;;;;;;;;;16.20;72.70;;;;;;4994698;28;19909;-69
2021/10/25 13:07:09;;;;;;;;;;;16.40;72.30;;;;;;4993318;28;20377;-69
2021/10/25 13:09:44;;;;;;;;;;;16.80;71.70;;;;;;4993359;28;20259;-69
2021/10/25 13:12:10;;;;;;;;;;;16.60;72.80;;;;;;4994479;28;19917;-70
2021/10/25 13:14:36;;;;;;;;;;;16.40;72.60;;;;;;4993792;28;19905;-70
2021/10/25 13:17:02;;;;;;;;;;;16.20;71.90;;;;;;4994019;28;20043;-67
2021/10/25 13:19:27;;;;;;;;;;;16.10;72.40;;;;;;4994496;28;19906;-68
2021/10/25 13:21:53;;;;;;;;;;;16.00;74.20;;;;;;4992886;28;19983;-69
2021/10/25 13:24:19;;;;;;;;;;;15.90;73.80;;;;;;4994716;28;19933;-67
2021/10/25 13:26:44;;;;;;;;;;;15.80;75.70;;;;;;4993041;28;20449;-67
2021/10/25 13:29:10;;;;;;;;;;;15.70;73.90;;;;;;4994377;28;20330;-70
2021/10/25 13:31:36;;;;;;;;;;;15.70;75.90;;;;;;4993838;28;20370;-69
2021/10/25 13:34:03;;;;;;;;;;;15.70;75.50;;;;;;4993042;28;19929;-68
2021/10/25 13:36:29;;;;;;;;;;;15.60;75.60;;;;;;4993003;28;19980;-68
2021/10/25 13:38:54;;;;;;;;;;;15.60;73.40;;;;;;4994331;28;20339;-68
2021/10/25 13:41:20;;;;;;;;;;;15.60;75.10;;;;;;4993032;28;19905;-67
2021/10/25 13:43:46;;;;;;;;;;;15.50;73.80;;;;;;4994173;28;19924;-68
2021/10/25 13:46:12;;;;;;;;;;;15.50;74.40;;;;;;4994179;28;19912;-68
2021/10/25 13:48:40;;;;;;;;;;;15.50;75.70;;;;;;4994125;28;19910;-70
2021/10/25 13:51:05;;;;;;;;;;;15.40;75.80;;;;;;4994486;28;19906;-69
2021/10/25 13:53:31;;;;;;;;;;;15.30;74.00;;;;;;4992789;28;19987;-68
2021/10/25 13:55:58;;;;;;;;;;;15.40;75.10;;;;;;4994148;28;19910;-69
2021/10/25 13:58:24;;;;;;;;;;;15.30;75.90;;;;;;4992778;28;19913;-68
2021/10/25 14:00:50;;;;;;;;;;;15.30;75.00;;;;;;4994453;28;20359;-70
2021/10/25 14:03:15;;;;;;;;;;;15.30;74.10;;;;;;4993808;28;19913;-67
2021/10/25 14:05:41;;;;;;;;;;;15.20;74.10;;;;;;4993995;28;19916;-68
2021/10/25 14:08:07;;;;;;;;;;;15.20;74.70;;;;;;4993953;28;19917;-69
2021/10/25 14:10:45;;;;;;;;;;;15.20;76.30;;;;;;4994046;28;20036;-68
2021/10/25 14:13:25;;;;;;;;;;;15.10;77.40;;;;;;4992674;28;19906;-68
2021/10/25 14:16:07;;;;;;;;;;;15.10;74.60;;;;;;4994009;28;20448;-68
2021/10/25 14:18:34;;;;;;;;;;;15.10;74.20;;;;;;4994102;28;19922;-70
2021/10/25 14:21:00;;;;;;;;;;;15.10;75.60;;;;;;4993977;28;19916;-68
2021/10/25 14:23:25;;;;;;;;;;;15.00;76.20;;;;;;4993913;28;19913;-68
2021/10/25 14:25:51;;;;;;;;;;;15.00;76.20;;;;;;4995076;28;20362;-69
2021/10/25 14:28:16;;;;;;;;;;;15.00;75.70;;;;;;4997811;28;19912;-67
2021/10/25 14:30:42;;;;;;;;;;;14.90;75.50;;;;;;4996427;28;19945;-70
2021/10/25 14:33:09;;;;;;;;;;;14.90;76.80;;;;;;4997783;28;20366;-70
2021/10/25 14:35:36;;;;;;;;;;;14.80;76.60;;;;;;4996383;28;19916;-68
2021/10/25 14:38:05;;;;;;;;;;;14.80;75.60;;;;;;4997532;28;19906;-68
2021/10/25 14:43:14;;;;;;;;;;;14.80;75.70;;;;;;4997530;28;19910;-71
2021/10/25 14:45:45;;;;;;;;;;;14.80;75.30;;;;;;4996231;28;19917;-68
2021/10/25 14:48:24;;;;;;;;;;;14.80;75.00;;;;;;4997276;28;19910;-70
2021/10/25 14:53:46;;;;;;;;;;;14.70;75.40;;;;;;4997148;28;19912;-70
2021/10/25 14:56:14;;;;;;;;;;;14.60;75.70;;;;;;4997408;28;19914;-70
2021/10/25 14:58:40;;;;;;;;;;;14.60;75.80;;;;;;4997024;28;20008;-69
2021/10/25 15:01:06;;;;;;;;;;;14.60;76.00;;;;;;4996951;28;20068;-68
2021/10/25 15:03:32;;;;;;;;;;;14.50;75.70;;;;;;4996683;28;19909;-69
2021/10/25 15:05:58;;;;;;;;;;;14.50;76.10;;;;;;4997133;28;19909;-69
2021/10/25 15:08:25;;;;;;;;;;;14.40;77.90;;;;;;4997078;28;20362;-67
2021/10/25 15:10:51;;;;;;;;;;;14.40;78.40;;;;;;4997026;28;19916;-68
2021/10/25 15:13:17;;;;;;;;;;;14.30;77.80;;;;;;4995532;28;19909;-67
2021/10/25 15:15:43;;;;;;;;;;;14.30;76.60;;;;;;4997269;28;20008;-70
2021/10/25 15:18:08;;;;;;;;;;;14.20;78.40;;;;;;4996886;28;19921;-70
2021/10/25 15:20:35;;;;;;;;;;;14.10;78.40;;;;;;4996483;28;20311;-69
2021/10/25 15:23:00;;;;;;;;;;;14.10;77.80;;;;;;4995342;28;20370;-70
2021/10/25 15:25:37;;;;;;;;;;;14.10;77.80;;;;;;4995457;28;19910;-68
2021/10/25 15:28:04;;;;;;;;;;;14.00;79.10;;;;;;4996742;28;19937;-69
2021/10/25 15:30:30;;;;;;;;;;;14.00;78.00;;;;;;4995079;28;20358;-67
2021/10/25 15:32:56;;;;;;;;;;;13.90;79.50;;;;;;4995108;28;19959;-69
2021/10/25 15:35:22;;;;;;;;;;;13.90;79.30;;;;;;4996554;28;19905;-70
2021/10/25 15:37:48;;;;;;;;;;;13.80;79.10;;;;;;4996115;28;20649;-70
2021/10/25 15:40:13;;;;;;;;;;;13.70;79.10;;;;;;4996499;28;20004;-67
2021/10/25 15:42:39;;;;;;;;;;;13.70;80.40;;;;;;4995138;28;19914;-69
2021/10/25 15:45:06;;;;;;;;;;;13.60;80.40;;;;;;4993322;28;19959;-68
2021/10/25 15:47:31;;;;;;;;;;;13.50;79.50;;;;;;4996071;28;20273;-67
2021/10/25 15:49:58;;;;;;;;;;;13.50;79.40;;;;;;4994904;28;19906;-69
2021/10/25 15:52:25;;;;;;;;;;;13.40;79.80;;;;;;4995962;28;19912;-67
2021/10/25 15:54:51;;;;;;;;;;;13.40;81.90;;;;;;4996031;28;20347;-70
2021/10/25 15:57:17;;;;;;;;;;;13.40;80.70;;;;;;4996045;28;19951;-66
2021/10/25 15:59:44;;;;;;;;;;;13.30;80.70;;;;;;4996059;28;20408;-66
2021/10/25 16:02:10;;;;;;;;;;;13.20;81.00;;;;;;4993671;28;20282;-66
2021/10/25 16:04:36;;;;;;;;;;;13.20;81.70;;;;;;4994145;28;19917;-65
2021/10/25 16:07:02;;;;;;;;;;;13.10;82.00;;;;;;4996010;28;19913;-65
2021/10/25 16:09:28;;;;;;;;;;;13.10;82.70;;;;;;4994475;28;19909;-66
2021/10/25 16:11:58;;;;;;;;;;;13.00;83.60;;;;;;4993650;28;19906;-66
2021/10/25 16:14:24;;;;;;;;;;;13.00;83.60;;;;;;4995567;28;19948;-66
2021/10/25 16:16:50;;;;;;;;;;;13.00;82.20;;;;;;4995385;28;19956;-65
2021/10/25 16:19:16;;;;;;;;;;;13.00;82.20;;;;;;4994401;28;19910;-66
2021/10/25 16:21:42;;;;;;;;;;;13.00;82.30;;;;;;4995271;28;20009;-65
2021/10/25 16:24:09;;;;;;;;;;;12.90;83.00;;;;;;4994336;28;20016;-64